Baraga, Michigan
Current Conditions -  °F | °C
As of 8:53 AM on Monday 20 Oct 2014 (Local Time) from KCMX Reporting Station
Overcast Overcast  
Wind Chill: 40°   Ceiling: 1400
Heat Index: 45°   Visibility: 10mi
Dew Point: 41°   Wind: 9mph
Humidity: 86%   Direction: 330°NNW
Pressure: 29.83"   Gusts: NA
Location:  46.78°N, 88.49°W
Report Text: KCMX 201253Z AUTO 33008KT 10SM OVC014 07/05 A2983 RMK AO2 SLP108 T00720050
Loading
Personal Weather Stations






























Interactive Weather Map
Tropical Storm Tracking
New forecast layout! Learn more

10-Day Weather Forecast

Advertisements
Track Severe Weather on mobile